createdAt,value
2023-02-16T00:02:19.407Z,46.72
2023-02-16T00:04:45.650Z,46.04
2023-02-16T00:07:11.913Z,45.08
2023-02-16T00:09:38.217Z,44.79
2023-02-16T00:12:04.591Z,44.97
2023-02-16T00:14:30.874Z,44.84
2023-02-16T00:16:57.174Z,44.67
2023-02-16T00:19:23.393Z,44.44
2023-02-16T00:21:49.623Z,43.94
2023-02-16T00:24:15.896Z,43.48
2023-02-16T00:26:42.175Z,44.21
2023-02-16T00:29:08.453Z,44.01
2023-02-16T00:31:34.914Z,45.04
2023-02-16T00:34:01.235Z,46.11
2023-02-16T00:36:27.480Z,46.21
2023-02-16T00:38:53.740Z,46.93
2023-02-16T00:41:19.993Z,46.85
2023-02-16T00:43:46.251Z,45.65
2023-02-16T00:46:12.567Z,45.78
2023-02-16T00:48:38.823Z,45.46
2023-02-16T00:51:16.745Z,44.62
2023-02-16T00:53:50.357Z,45.12
2023-02-16T00:56:16.759Z,44.88
2023-02-16T00:58:43.062Z,44.76
2023-02-16T01:01:09.412Z,44.63
2023-02-16T01:03:35.729Z,44.45
2023-02-16T01:06:02.053Z,45.36
2023-02-16T01:08:28.356Z,45.38
2023-02-16T01:10:54.617Z,44.28
2023-02-16T01:13:20.879Z,44.16
2023-02-16T01:15:47.324Z,43.54
2023-02-16T01:18:13.656Z,43.19
2023-02-16T01:20:39.905Z,43.00
2023-02-16T01:23:06.280Z,43.75
2023-02-16T01:25:32.576Z,42.90
2023-02-16T01:27:58.830Z,43.18
2023-02-16T01:30:25.242Z,43.11
2023-02-16T01:32:51.687Z,43.36
2023-02-16T01:35:18.051Z,43.09
2023-02-16T01:37:44.355Z,43.28
2023-02-16T01:40:10.651Z,43.24
2023-02-16T01:42:36.961Z,43.22
2023-02-16T01:45:03.310Z,44.96
2023-02-16T01:47:29.560Z,45.33
2023-02-16T01:49:55.830Z,46.18
2023-02-16T01:52:22.228Z,45.97
2023-02-16T01:54:48.536Z,46.42
2023-02-16T01:57:14.777Z,46.82
2023-02-16T01:59:41.064Z,46.12
2023-02-16T02:02:07.354Z,46.28
2023-02-16T02:04:33.609Z,46.50
2023-02-16T02:06:59.876Z,46.26
2023-02-16T02:09:26.136Z,46.42
2023-02-16T02:11:52.432Z,45.36
2023-02-16T02:14:18.730Z,44.91
2023-02-16T02:16:44.995Z,44.67
2023-02-16T02:19:11.294Z,44.83
2023-02-16T02:21:37.640Z,44.72
2023-02-16T02:24:03.937Z,44.93
2023-02-16T02:26:30.265Z,44.70
2023-02-16T02:28:56.537Z,45.39
2023-02-16T02:31:22.953Z,46.24
2023-02-16T02:33:49.355Z,47.01
2023-02-16T02:36:15.629Z,46.66
2023-02-16T02:38:41.882Z,47.72
2023-02-16T02:41:08.156Z,47.71
2023-02-16T02:43:34.396Z,47.79
2023-02-16T02:46:00.667Z,48.34
2023-02-16T02:48:26.925Z,49.30
2023-02-16T02:50:53.159Z,49.21
2023-02-16T02:53:19.398Z,48.28
2023-02-16T02:55:45.993Z,48.59
2023-02-16T02:58:12.235Z,48.30
2023-02-16T03:00:38.592Z,48.45
2023-02-16T03:03:04.939Z,48.37
2023-02-16T03:05:31.278Z,47.49
2023-02-16T03:07:57.527Z,47.44
2023-02-16T03:10:23.836Z,47.24
2023-02-16T03:12:50.158Z,46.43
2023-02-16T03:15:16.416Z,46.32
2023-02-16T03:17:42.683Z,45.80
2023-02-16T03:20:08.957Z,45.30
2023-02-16T03:22:35.367Z,45.48
2023-02-16T03:25:01.660Z,45.38
2023-02-16T03:27:27.985Z,45.23
2023-02-16T03:29:54.335Z,45.61
2023-02-16T03:32:20.589Z,45.22
2023-02-16T03:34:46.852Z,45.17
2023-02-16T03:37:13.232Z,44.83
2023-02-16T03:39:39.481Z,45.16
2023-02-16T03:42:05.727Z,44.59
2023-02-16T03:44:32.016Z,45.26
2023-02-16T03:46:58.272Z,44.92
2023-02-16T03:49:24.545Z,44.73
2023-02-16T03:51:50.801Z,44.47
2023-02-16T03:54:17.042Z,43.86
2023-02-16T03:56:43.353Z,44.27
2023-02-16T03:59:09.683Z,43.42
2023-02-16T04:01:35.951Z,43.06
2023-02-16T04:04:02.296Z,43.32
2023-02-16T04:06:28.676Z,43.06
2023-02-16T04:08:54.946Z,43.19
2023-02-16T04:11:21.193Z,43.41
2023-02-16T04:14:07.422Z,43.50
2023-02-16T04:16:34.098Z,43.11
2023-02-16T04:19:00.377Z,43.52
2023-02-16T04:21:26.647Z,42.65
2023-02-16T04:23:52.911Z,44.13
2023-02-16T04:26:19.266Z,43.02
2023-02-16T04:28:45.502Z,43.41
2023-02-16T04:31:11.966Z,42.33
2023-02-16T04:33:38.379Z,43.57
2023-02-16T04:36:04.635Z,43.98
2023-02-16T04:38:30.944Z,44.79
2023-02-16T04:40:57.253Z,45.72
2023-02-16T04:43:23.498Z,46.24
2023-02-16T04:45:49.852Z,45.97
2023-02-16T04:48:16.191Z,44.93
2023-02-16T04:50:42.441Z,44.88
2023-02-16T04:53:08.708Z,44.44
2023-02-16T04:55:35.048Z,44.92
2023-02-16T04:58:01.569Z,44.50
2023-02-16T05:00:27.840Z,45.01
2023-02-16T05:02:54.129Z,44.80
2023-02-16T05:05:20.399Z,45.16
2023-02-16T05:07:46.679Z,45.05
2023-02-16T05:10:13.046Z,45.06
2023-02-16T05:12:39.321Z,45.17
2023-02-16T05:15:05.674Z,46.97
2023-02-16T05:17:32.109Z,47.01
2023-02-16T05:19:58.377Z,44.18
2023-02-16T05:22:24.662Z,46.36
2023-02-16T05:24:50.940Z,46.96
2023-02-16T05:27:17.250Z,45.85
2023-02-16T05:29:43.509Z,45.79
2023-02-16T05:32:09.860Z,46.28
2023-02-16T05:34:36.170Z,46.10
2023-02-16T05:37:02.406Z,46.20
2023-02-16T05:39:28.679Z,46.02
2023-02-16T05:41:54.989Z,45.62
2023-02-16T05:44:21.280Z,46.01
2023-02-16T05:46:47.596Z,46.92
2023-02-16T05:49:13.867Z,47.52
2023-02-16T05:51:40.168Z,47.65
2023-02-16T05:54:06.438Z,46.65
2023-02-16T05:56:34.404Z,46.40
2023-02-16T05:59:00.662Z,46.66
2023-02-16T06:01:26.921Z,45.99
2023-02-16T06:03:53.232Z,44.83
2023-02-16T06:06:19.552Z,44.78
2023-02-16T06:08:45.828Z,46.26
2023-02-16T06:11:12.101Z,46.93
2023-02-16T06:13:38.413Z,46.70
2023-02-16T06:16:05.147Z,46.85
2023-02-16T06:18:31.461Z,46.70
2023-02-16T06:20:58.028Z,46.81
2023-02-16T06:23:24.646Z,45.29
2023-02-16T06:25:50.910Z,45.72
2023-02-16T06:28:17.312Z,46.94
2023-02-16T06:30:43.991Z,48.06
2023-02-16T06:33:10.398Z,47.03
2023-02-16T06:35:36.715Z,46.86
2023-02-16T06:38:03.029Z,47.63
2023-02-16T06:40:29.275Z,46.50
2023-02-16T06:42:55.565Z,46.92
2023-02-16T06:45:21.861Z,47.33
2023-02-16T06:47:48.467Z,46.99
2023-02-16T06:50:14.788Z,46.26
2023-02-16T06:52:41.130Z,45.29
2023-02-16T06:55:07.537Z,45.05
2023-02-16T06:57:33.817Z,45.30
2023-02-16T07:00:00.121Z,45.27
2023-02-16T07:02:26.386Z,44.62
2023-02-16T07:04:52.661Z,45.69
2023-02-16T07:07:19.250Z,44.96
2023-02-16T07:09:45.803Z,44.41
2023-02-16T07:12:12.227Z,46.23
2023-02-16T07:14:38.801Z,46.84
2023-02-16T07:17:06.082Z,46.67
2023-02-16T07:19:32.498Z,46.23
2023-02-16T07:21:58.962Z,45.95
2023-02-16T07:24:25.436Z,46.25
2023-02-16T07:26:52.347Z,46.18
2023-02-16T07:29:21.132Z,45.81
2023-02-16T07:31:47.888Z,46.13
2023-02-16T07:34:14.736Z,46.08
2023-02-16T07:36:41.166Z,45.83
2023-02-16T07:39:07.702Z,46.01
2023-02-16T07:41:34.128Z,45.73
2023-02-16T07:44:00.624Z,46.04
2023-02-16T07:46:27.197Z,46.19
2023-02-16T07:48:53.692Z,47.16
2023-02-16T07:51:20.046Z,47.26
2023-02-16T07:53:46.472Z,47.40
2023-02-16T07:56:12.737Z,47.89
2023-02-16T07:58:39.016Z,47.65
2023-02-16T08:01:05.557Z,47.13
2023-02-16T08:03:31.994Z,45.04
2023-02-16T08:05:58.227Z,44.22
2023-02-16T08:08:24.509Z,45.27
2023-02-16T08:10:50.815Z,45.92
2023-02-16T08:13:17.129Z,46.30
2023-02-16T08:15:43.461Z,45.32
2023-02-16T08:18:09.771Z,45.59
2023-02-16T08:20:57.637Z,45.54
2023-02-16T08:23:22.318Z,44.75
2023-02-16T08:25:48.698Z,44.76
2023-02-16T08:28:14.951Z,44.88
2023-02-16T08:30:41.291Z,45.00
2023-02-16T08:33:07.582Z,45.08
2023-02-16T08:35:33.952Z,43.93
2023-02-16T08:38:00.247Z,44.66
2023-02-16T08:40:26.533Z,44.90
2023-02-16T08:42:52.813Z,44.94
2023-02-16T08:45:19.173Z,42.76
2023-02-16T08:47:45.458Z,42.75
2023-02-16T08:50:11.802Z,42.00
2023-02-16T08:52:38.162Z,43.22
2023-02-16T08:55:04.788Z,43.35
2023-02-16T08:57:31.054Z,42.33
2023-02-16T08:59:57.386Z,41.88
2023-02-16T09:02:23.706Z,41.58
2023-02-16T09:04:50.059Z,40.68
2023-02-16T09:07:16.496Z,41.00
2023-02-16T09:09:42.918Z,41.36
2023-02-16T09:12:09.176Z,41.80
2023-02-16T09:14:35.456Z,41.24
2023-02-16T09:17:01.798Z,40.45
2023-02-16T09:19:28.191Z,41.46
2023-02-16T09:21:54.581Z,41.82
2023-02-16T09:24:20.869Z,41.73
2023-02-16T09:26:47.141Z,41.17
2023-02-16T09:29:13.412Z,41.62
2023-02-16T09:31:39.732Z,40.98
2023-02-16T09:34:06.124Z,39.68
2023-02-16T09:36:32.412Z,39.77
2023-02-16T09:38:58.651Z,40.30
2023-02-16T09:41:24.904Z,40.06
2023-02-16T09:43:51.168Z,40.45
2023-02-16T09:46:17.802Z,40.18
2023-02-16T09:48:44.098Z,39.76
2023-02-16T09:51:10.356Z,39.41
2023-02-16T09:53:36.690Z,39.26
2023-02-16T09:56:03.307Z,38.32
2023-02-16T09:58:29.985Z,38.88
2023-02-16T10:00:56.421Z,36.65
2023-02-16T10:03:22.702Z,36.57
2023-02-16T10:05:49.235Z,37.12
2023-02-16T10:08:15.667Z,36.89
2023-02-16T10:10:48.353Z,37.10
2023-02-16T10:13:14.905Z,37.20
2023-02-16T10:15:41.377Z,37.02
2023-02-16T10:18:07.947Z,36.51
2023-02-16T10:20:34.437Z,36.74
2023-02-16T10:23:00.924Z,36.58
2023-02-16T10:25:28.305Z,36.30
2023-02-16T10:27:55.844Z,36.93
2023-02-16T10:30:22.565Z,37.45
2023-02-16T10:32:49.073Z,36.79
2023-02-16T10:35:15.456Z,37.83
2023-02-16T10:37:41.961Z,37.29
2023-02-16T10:40:10.719Z,36.57
2023-02-16T10:42:37.467Z,36.11
2023-02-16T10:45:04.013Z,35.63
2023-02-16T10:47:30.570Z,35.87
2023-02-16T10:49:56.988Z,35.85
2023-02-16T10:52:23.262Z,36.08
2023-02-16T10:54:49.642Z,36.09
2023-02-16T10:57:16.031Z,36.53
2023-02-16T10:59:42.501Z,36.59
2023-02-16T11:02:08.929Z,35.70
2023-02-16T11:04:35.302Z,36.13
2023-02-16T11:07:01.685Z,36.48
2023-02-16T11:09:28.012Z,35.46
2023-02-16T11:11:54.303Z,35.65
2023-02-16T11:14:20.604Z,35.43
2023-02-16T11:16:46.900Z,35.75
2023-02-16T11:19:13.221Z,35.65
2023-02-16T11:21:39.554Z,35.32
2023-02-16T11:24:05.859Z,35.38
2023-02-16T11:26:32.129Z,34.62
2023-02-16T11:28:58.406Z,34.46
2023-02-16T11:31:24.874Z,34.00
2023-02-16T11:33:51.292Z,35.06
2023-02-16T11:36:17.598Z,35.42
2023-02-16T11:38:43.943Z,35.83
2023-02-16T11:41:10.341Z,36.11
2023-02-16T11:43:36.628Z,35.70
2023-02-16T11:46:03.066Z,35.63
2023-02-16T11:48:29.420Z,35.51
2023-02-16T11:50:55.697Z,35.69
2023-02-16T11:53:21.992Z,35.32
2023-02-16T11:55:48.367Z,34.37
2023-02-16T11:58:14.701Z,34.51
2023-02-16T12:00:40.943Z,33.69
2023-02-16T12:03:07.258Z,33.72
2023-02-16T12:05:33.614Z,33.84
2023-02-16T12:08:00.081Z,33.72
2023-02-16T12:10:26.363Z,34.03
2023-02-16T12:12:54.671Z,33.73
2023-02-16T12:15:21.033Z,33.40
2023-02-16T12:17:47.292Z,34.06
2023-02-16T12:20:13.587Z,34.09
2023-02-16T12:22:39.962Z,33.49
2023-02-16T12:25:06.184Z,34.38
2023-02-16T12:27:32.425Z,34.63
2023-02-16T12:29:58.684Z,33.86
2023-02-16T12:32:25.037Z,34.47
2023-02-16T12:34:51.389Z,35.14
2023-02-16T12:37:17.648Z,35.20
2023-02-16T12:39:45.787Z,34.60
2023-02-16T12:42:12.117Z,33.71
2023-02-16T12:44:41.455Z,33.63
2023-02-16T12:47:08.020Z,33.52
2023-02-16T12:49:34.879Z,34.26
2023-02-16T12:52:05.397Z,33.73
2023-02-16T12:54:31.861Z,33.82
2023-02-16T12:56:58.414Z,34.17
2023-02-16T12:59:25.292Z,34.76
2023-02-16T13:01:51.707Z,35.32
2023-02-16T13:04:18.039Z,35.17
2023-02-16T13:06:44.750Z,34.84
2023-02-16T13:09:11.001Z,35.05
2023-02-16T13:11:37.343Z,34.70
2023-02-16T13:14:03.720Z,34.39
2023-02-16T13:16:31.228Z,34.03
2023-02-16T13:18:57.594Z,34.28
2023-02-16T13:21:23.857Z,34.41
2023-02-16T13:23:50.225Z,34.41
2023-02-16T13:26:16.596Z,34.39
2023-02-16T13:28:43.076Z,33.14
2023-02-16T13:31:09.451Z,33.64
2023-02-16T13:33:35.740Z,33.53
2023-02-16T13:36:02.370Z,34.42
2023-02-16T13:38:28.883Z,35.43
2023-02-16T13:40:55.140Z,33.78
2023-02-16T13:43:21.408Z,34.08
2023-02-16T13:45:47.701Z,35.71
2023-02-16T13:48:13.987Z,36.67
2023-02-16T13:50:40.245Z,36.03
2023-02-16T13:53:06.617Z,36.52
2023-02-16T13:55:32.902Z,37.16
2023-02-16T13:57:59.265Z,38.00
2023-02-16T14:00:25.612Z,38.47
2023-02-16T14:02:51.911Z,38.25
2023-02-16T14:05:18.216Z,37.58
2023-02-16T14:07:44.687Z,37.17
2023-02-16T14:10:11.184Z,37.07
2023-02-16T14:12:37.592Z,37.85
2023-02-16T14:15:03.938Z,39.71
2023-02-16T14:17:30.193Z,39.46
2023-02-16T14:19:56.496Z,38.62
2023-02-16T14:22:22.774Z,38.84
2023-02-16T14:24:49.055Z,38.88
2023-02-16T14:27:15.303Z,39.30
2023-02-16T14:29:41.577Z,39.14
2023-02-16T14:32:07.856Z,39.31
2023-02-16T14:34:34.159Z,38.76
2023-02-16T14:37:00.484Z,38.53
2023-02-16T14:39:27.106Z,39.33
2023-02-16T14:41:53.366Z,39.40
2023-02-16T14:44:19.608Z,39.07
2023-02-16T14:46:45.966Z,39.49
2023-02-16T14:49:12.303Z,39.76
2023-02-16T14:51:38.612Z,39.90
2023-02-16T14:54:05.090Z,40.04
2023-02-16T14:56:32.048Z,40.19
2023-02-16T14:58:58.382Z,40.23
2023-02-16T15:01:24.720Z,40.64
2023-02-16T15:03:51.095Z,38.92
2023-02-16T15:06:17.398Z,40.99
2023-02-16T15:08:43.719Z,41.91
2023-02-16T15:11:10.029Z,41.92
2023-02-16T15:13:44.411Z,41.07
2023-02-16T15:16:10.780Z,39.33
2023-02-16T15:18:37.162Z,38.26
2023-02-16T15:21:03.439Z,39.31
2023-02-16T15:23:29.782Z,39.54
2023-02-16T15:25:56.414Z,39.56
2023-02-16T15:28:22.762Z,39.26
2023-02-16T15:30:49.108Z,40.39
2023-02-16T15:33:15.429Z,40.97
2023-02-16T15:35:41.703Z,39.30
2023-02-16T15:38:08.042Z,41.28
2023-02-16T15:40:34.369Z,40.88
2023-02-16T15:43:00.619Z,42.02
2023-02-16T15:45:26.998Z,40.96
2023-02-16T15:47:53.315Z,40.14
2023-02-16T15:50:19.568Z,42.31
2023-02-16T15:52:45.849Z,42.43
2023-02-16T15:55:12.137Z,42.04
2023-02-16T15:57:38.469Z,42.54
2023-02-16T16:00:04.701Z,41.98
2023-02-16T16:02:31.011Z,41.95
2023-02-16T16:04:57.275Z,43.83
2023-02-16T16:07:23.652Z,43.62
2023-02-16T16:09:49.990Z,42.42
2023-02-16T16:12:16.225Z,42.63
2023-02-16T16:14:42.519Z,42.33
2023-02-16T16:17:08.812Z,42.34
2023-02-16T16:19:35.082Z,40.79
2023-02-16T16:22:01.332Z,40.76
2023-02-16T16:24:27.629Z,40.89
2023-02-16T16:26:53.911Z,40.97
2023-02-16T16:29:20.145Z,40.80
2023-02-16T16:31:46.477Z,40.05
2023-02-16T16:34:12.837Z,39.19
2023-02-16T16:36:39.157Z,38.69
2023-02-16T16:39:05.403Z,38.26
2023-02-16T16:41:31.634Z,38.20
2023-02-16T16:43:57.919Z,38.56
2023-02-16T16:46:24.174Z,38.39
2023-02-16T16:48:50.484Z,38.77
2023-02-16T16:51:16.793Z,39.42
2023-02-16T16:53:43.073Z,40.31
2023-02-16T16:56:09.363Z,41.08
2023-02-16T16:58:35.647Z,40.42
2023-02-16T17:01:02.173Z,40.42
2023-02-16T17:03:30.462Z,40.53
2023-02-16T17:05:57.537Z,41.09
2023-02-16T17:08:23.787Z,41.09
2023-02-16T17:10:50.069Z,41.51
2023-02-16T17:13:16.415Z,41.63
2023-02-16T17:15:42.711Z,41.53
2023-02-16T17:18:09.005Z,42.04
2023-02-16T17:20:35.322Z,41.19
2023-02-16T17:23:01.685Z,39.90
2023-02-16T17:25:28.001Z,39.99
2023-02-16T17:27:54.352Z,39.97
2023-02-16T17:30:20.719Z,40.47
2023-02-16T17:32:47.044Z,39.91
2023-02-16T17:35:13.398Z,39.94
2023-02-16T17:37:39.640Z,39.44
2023-02-16T17:40:05.903Z,39.54
2023-02-16T17:42:32.192Z,38.28
2023-02-16T17:45:00.752Z,38.57
2023-02-16T17:47:27.013Z,39.72
2023-02-16T17:49:53.263Z,38.65
2023-02-16T17:52:19.612Z,38.65
2023-02-16T17:54:45.897Z,38.67
2023-02-16T17:57:12.153Z,40.36
2023-02-16T17:59:38.550Z,39.45
2023-02-16T18:02:04.810Z,39.62
2023-02-16T18:04:31.100Z,40.22
2023-02-16T18:06:57.453Z,38.63
2023-02-16T18:09:23.724Z,40.02
2023-02-16T18:11:49.966Z,40.07
2023-02-16T18:14:16.255Z,41.34
2023-02-16T18:16:42.528Z,42.57
2023-02-16T18:19:08.769Z,42.11
2023-02-16T18:21:35.042Z,41.66
2023-02-16T18:24:01.357Z,42.26
2023-02-16T18:26:27.648Z,42.02
2023-02-16T18:28:53.922Z,42.45
2023-02-16T18:31:20.403Z,42.64
2023-02-16T18:33:46.674Z,42.39
2023-02-16T18:36:12.930Z,42.32
2023-02-16T18:38:39.269Z,42.59
2023-02-16T18:41:05.584Z,40.72
2023-02-16T18:43:31.850Z,39.73
2023-02-16T18:45:58.190Z,41.95
2023-02-16T18:48:24.485Z,41.90
2023-02-16T18:50:50.748Z,41.57
2023-02-16T18:53:17.042Z,42.23
2023-02-16T18:55:43.419Z,41.39
2023-02-16T18:58:09.702Z,42.19
2023-02-16T19:00:35.962Z,42.28
2023-02-16T19:03:02.263Z,42.96
2023-02-16T19:05:28.507Z,43.10
2023-02-16T19:07:54.816Z,43.52
2023-02-16T19:10:21.068Z,43.36
2023-02-16T19:12:47.313Z,42.77
2023-02-16T19:15:13.595Z,43.15
2023-02-16T19:17:39.847Z,44.53
2023-02-16T19:20:06.160Z,43.78
2023-02-16T19:22:32.407Z,43.09
2023-02-16T19:24:58.770Z,42.58
2023-02-16T19:27:25.129Z,42.87
2023-02-16T19:29:51.370Z,42.18
2023-02-16T19:32:17.725Z,41.14
2023-02-16T19:34:43.972Z,41.19
2023-02-16T19:37:10.216Z,42.34
2023-02-16T19:39:36.508Z,42.59
2023-02-16T19:42:02.789Z,40.90
2023-02-16T19:44:29.202Z,40.20
2023-02-16T19:46:55.439Z,40.39
2023-02-16T19:49:21.680Z,40.91
2023-02-16T19:51:47.949Z,41.88
2023-02-16T19:54:14.180Z,41.94
2023-02-16T19:56:40.435Z,42.01
2023-02-16T19:59:06.678Z,41.00
2023-02-16T20:01:32.942Z,41.42
2023-02-16T20:03:59.258Z,40.83
2023-02-16T20:06:25.567Z,40.49
2023-02-16T20:08:51.804Z,41.04
2023-02-16T20:11:18.101Z,41.83
2023-02-16T20:13:44.406Z,41.87
2023-02-16T20:16:10.695Z,42.29
2023-02-16T20:18:37.045Z,43.01
2023-02-16T20:21:03.320Z,43.75
2023-02-16T20:23:29.661Z,43.94
2023-02-16T20:25:55.953Z,42.37
2023-02-16T20:28:22.228Z,42.17
2023-02-16T20:30:48.534Z,42.04
2023-02-16T20:33:14.825Z,42.12
2023-02-16T20:35:41.089Z,41.51
2023-02-16T20:38:07.336Z,40.94
2023-02-16T20:40:33.596Z,40.63
2023-02-16T20:42:59.847Z,40.62
2023-02-16T20:45:26.163Z,40.32
2023-02-16T20:47:52.442Z,39.85
2023-02-16T20:50:18.833Z,40.44
2023-02-16T20:52:45.104Z,40.58
2023-02-16T20:55:11.360Z,40.98
2023-02-16T20:57:37.603Z,41.01
2023-02-16T21:00:03.849Z,42.02
2023-02-16T21:02:30.171Z,41.72
2023-02-16T21:04:56.442Z,42.52
2023-02-16T21:07:22.710Z,42.00
2023-02-16T21:09:48.977Z,41.68
2023-02-16T21:12:15.214Z,41.08
2023-02-16T21:14:41.512Z,41.23
2023-02-16T21:17:07.804Z,40.89
2023-02-16T21:19:34.092Z,40.91
2023-02-16T21:22:00.370Z,40.32
2023-02-16T21:24:26.649Z,39.78
2023-02-16T21:26:52.926Z,40.33
2023-02-16T21:29:19.161Z,40.25
2023-02-16T21:31:45.547Z,39.73
2023-02-16T21:34:11.898Z,39.54
2023-02-16T21:36:38.137Z,40.49
2023-02-16T21:39:04.928Z,39.64
2023-02-16T21:41:31.248Z,38.34
2023-02-16T21:43:57.510Z,38.79
2023-02-16T21:46:23.840Z,38.12
2023-02-16T21:48:50.161Z,38.18
2023-02-16T21:51:16.392Z,39.48
2023-02-16T21:53:42.620Z,38.91
2023-02-16T21:56:08.856Z,39.68
2023-02-16T21:58:35.097Z,40.06
2023-02-16T22:01:01.414Z,41.03
2023-02-16T22:03:27.762Z,40.72
2023-02-16T22:05:54.071Z,39.60
2023-02-16T22:08:20.367Z,38.07
2023-02-16T22:10:46.657Z,38.15
2023-02-16T22:13:12.970Z,38.26
2023-02-16T22:15:39.213Z,39.42
2023-02-16T22:18:05.472Z,40.15
2023-02-16T22:20:31.723Z,40.54
2023-02-16T22:22:57.970Z,39.97
2023-02-16T22:25:24.271Z,39.11
2023-02-16T22:27:50.647Z,40.21
2023-02-16T22:30:16.930Z,41.92
2023-02-16T22:32:43.243Z,42.35
2023-02-16T22:35:09.504Z,42.64
2023-02-16T22:37:35.790Z,42.64
2023-02-16T22:40:02.022Z,42.07
2023-02-16T22:42:28.666Z,42.14
2023-02-16T22:44:54.976Z,42.44
2023-02-16T22:47:21.243Z,42.44
2023-02-16T22:49:47.555Z,41.06
2023-02-16T22:52:13.850Z,40.12
2023-02-16T22:54:40.151Z,39.16
2023-02-16T22:57:06.444Z,40.07
2023-02-16T22:59:32.702Z,39.84
2023-02-16T23:01:58.948Z,39.60
2023-02-16T23:04:25.238Z,39.29
2023-02-16T23:06:51.564Z,39.44
2023-02-16T23:09:17.822Z,39.13
2023-02-16T23:11:44.111Z,38.93
2023-02-16T23:14:10.335Z,38.44
2023-02-16T23:16:36.649Z,38.12
2023-02-16T23:19:03.034Z,37.85
2023-02-16T23:21:29.287Z,38.08
2023-02-16T23:23:55.537Z,37.55
2023-02-16T23:26:21.782Z,37.33
2023-02-16T23:28:48.049Z,37.60
2023-02-16T23:31:14.399Z,37.42
2023-02-16T23:33:40.725Z,37.41
2023-02-16T23:36:07.274Z,37.26
2023-02-16T23:38:33.708Z,37.79
2023-02-16T23:40:59.956Z,40.16
2023-02-16T23:43:26.260Z,41.45
2023-02-16T23:45:52.538Z,42.94
2023-02-16T23:48:18.842Z,40.58
2023-02-16T23:50:45.152Z,40.27
2023-02-16T23:53:11.381Z,42.34
2023-02-16T23:55:37.680Z,40.69
2023-02-16T23:58:03.992Z,41.34
